Aeroporto :







RITROVATECI SU...

 
LOGIN :

Iscrizione | Disclaimer

   EN    FR    IT 

 









Sommario :    VFR   VFR Marginale   IFR   IFR Intensivo   IFR Molto Intensivo
Visibilità : 
Base nubi : 
>= 8 km
>= 3000ft
5 / 8 km
1000 / 3000 ft
1500m / 5 km
500 / 1000 ft
800 / 1500m
200 / 500 ft
< 800m
< 200 ft
Simboli :   Temporali  Nebbia  Neve Forte  Precipitazioni Forti  Vento > 20 kt






- Altitudine del aeroporto : 15 ft
- Codice IATA : EIS


TUPJ - Terrance B. Lettsome International

ULTIMO METAR :
  • 251200Z 06011KT 10SM VCSH BKN016 24/22 A3004 RMK Q1017 VIS16KM VCSH-SE/S

METARs OBSOLETI :
  • 251100Z 07009KT 10SM -SHRA BKN016 23/22 A3002 RMK Q1016 VIS16KM

TAF TAF TUPJ
Valido dal 25 a 12 ore il 26 a 12 ore UTC


251100Z 2512/2612 07007KT 9999 SCT022
PROB30
TEMPO 2518/2524 SHRA



MetMap, La meteo Aeronautica in un colpo d'occhio ! - Copyright ORBIFLY Dicembre 2007 - Disclaimer

ORBIFLY MET'MAP TEAM :

Programmazione e sviluppo : Alexandra Zaïnal
Concezione : Baudouin d'Aumeries
Aiuto per la programmazione : Marc-Olivier Méhu
Supporto tecnico e logistico : Manuel Goepfert
Aiuto per la traduzione : Arnaldo La Scala

Contatto : metmap@orbifly.com




FONTI E CREDITI :

   NOAA